createdAt,value
2023-04-25T00:01:47.935Z,74.43
2023-04-25T00:04:14.890Z,74.24
2023-04-25T00:06:47.686Z,74.13
2023-04-25T00:09:14.516Z,73.95
2023-04-25T00:11:41.742Z,74.13
2023-04-25T00:14:08.977Z,74.18
2023-04-25T00:16:36.796Z,74.12
2023-04-25T00:19:04.044Z,74.39
2023-04-25T00:21:32.626Z,74.65
2023-04-25T00:23:59.649Z,74.39
2023-04-25T00:26:26.497Z,74.78
2023-04-25T00:28:53.246Z,74.73
2023-04-25T00:31:20.205Z,74.65
2023-04-25T00:33:46.966Z,74.59
2023-04-25T00:36:13.804Z,74.89
2023-04-25T00:38:41.248Z,74.70
2023-04-25T00:41:08.605Z,74.42
2023-04-25T00:43:35.406Z,74.51
2023-04-25T00:46:02.292Z,74.68
2023-04-25T00:48:29.069Z,74.88
2023-04-25T00:50:58.560Z,74.63
2023-04-25T00:53:26.582Z,74.53
2023-04-25T00:55:53.502Z,74.30
2023-04-25T00:58:23.283Z,74.06
2023-04-25T01:00:51.441Z,74.38
2023-04-25T01:03:18.503Z,74.52
2023-04-25T01:05:45.421Z,74.19
2023-04-25T01:08:12.394Z,74.67
2023-04-25T01:10:39.112Z,74.82
2023-04-25T01:13:06.037Z,74.80
2023-04-25T01:15:33.023Z,74.80
2023-04-25T01:18:02.097Z,74.76
2023-04-25T01:20:29.563Z,75.31
2023-04-25T01:22:56.588Z,75.18
2023-04-25T01:25:23.814Z,75.43
2023-04-25T01:27:50.626Z,75.55
2023-04-25T01:30:17.621Z,75.35
2023-04-25T01:32:44.590Z,75.48
2023-04-25T01:35:12.284Z,75.24
2023-04-25T01:37:42.737Z,75.36
2023-04-25T01:40:10.843Z,75.57
2023-04-25T01:42:42.758Z,75.88
2023-04-25T01:45:10.279Z,75.57
2023-04-25T01:47:37.174Z,75.76
2023-04-25T01:50:05.404Z,76.04
2023-04-25T01:52:32.153Z,75.71
2023-04-25T01:54:59.226Z,75.57
2023-04-25T01:57:26.166Z,75.95
2023-04-25T01:59:53.137Z,75.89
2023-04-25T02:02:19.942Z,75.77
2023-04-25T02:04:47.037Z,75.87
2023-04-25T02:07:13.845Z,76.20
2023-04-25T02:09:40.584Z,76.30
2023-04-25T02:12:10.358Z,75.83
2023-04-25T02:14:37.133Z,76.12
2023-04-25T02:17:03.994Z,76.19
2023-04-25T02:19:30.974Z,75.90
2023-04-25T02:21:58.196Z,76.07
2023-04-25T02:24:24.920Z,75.98
2023-04-25T02:26:51.923Z,75.82
2023-04-25T02:29:18.837Z,76.02
2023-04-25T02:31:45.738Z,75.81
2023-04-25T02:34:12.649Z,76.02
2023-04-25T02:36:39.382Z,76.10
2023-04-25T02:39:06.172Z,75.98
2023-04-25T02:41:33.156Z,76.08
2023-04-25T02:43:59.874Z,75.65
2023-04-25T02:46:38.361Z,75.45
2023-04-25T02:49:06.395Z,75.39
2023-04-25T02:51:33.751Z,75.66
2023-04-25T02:54:00.500Z,75.79
2023-04-25T02:56:28.032Z,75.36
2023-04-25T02:59:03.301Z,75.73
2023-04-25T03:01:30.186Z,75.54
2023-04-25T03:03:57.052Z,75.49
2023-04-25T03:06:23.861Z,75.65
2023-04-25T03:08:50.683Z,75.48
2023-04-25T03:11:17.478Z,75.65
2023-04-25T03:13:44.326Z,75.60
2023-04-25T03:16:11.274Z,75.21
2023-04-25T03:18:38.124Z,75.33
2023-04-25T03:21:04.847Z,75.14
2023-04-25T03:23:36.916Z,75.23
2023-04-25T03:26:03.795Z,75.12
2023-04-25T03:28:30.588Z,75.05
2023-04-25T03:31:00.203Z,75.14
2023-04-25T03:33:26.948Z,74.84
2023-04-25T03:35:54.140Z,74.94
2023-04-25T03:38:20.965Z,74.68
2023-04-25T03:40:47.856Z,74.39
2023-04-25T03:43:14.627Z,74.14
2023-04-25T03:45:44.115Z,74.19
2023-04-25T03:48:10.983Z,74.23
2023-04-25T03:50:37.706Z,74.18
2023-04-25T03:53:04.465Z,74.12
2023-04-25T03:55:32.201Z,73.82
2023-04-25T03:57:59.364Z,74.30
2023-04-25T04:00:26.593Z,73.98
2023-04-25T04:02:53.498Z,74.27
2023-04-25T04:05:20.466Z,74.19
2023-04-25T04:07:47.229Z,74.29
2023-04-25T04:10:14.181Z,74.22
2023-04-25T04:12:40.994Z,74.03
2023-04-25T04:15:08.366Z,73.64
2023-04-25T04:17:35.577Z,73.73
2023-04-25T04:20:02.376Z,73.97
2023-04-25T04:22:29.086Z,74.26
2023-04-25T04:24:55.925Z,73.95
2023-04-25T04:27:22.789Z,74.11
2023-04-25T04:29:49.678Z,74.30
2023-04-25T04:32:16.661Z,74.40
2023-04-25T04:34:43.459Z,74.63
2023-04-25T04:37:11.505Z,74.90
2023-04-25T04:39:39.004Z,74.68
2023-04-25T04:42:06.200Z,74.64
2023-04-25T04:44:36.499Z,74.55
2023-04-25T04:47:07.446Z,74.95
2023-04-25T04:49:34.613Z,74.78
2023-04-25T04:52:01.952Z,74.41
2023-04-25T04:54:28.845Z,74.69
2023-04-25T04:56:55.886Z,74.72
2023-04-25T04:59:22.803Z,74.31
2023-04-25T05:01:49.542Z,74.26
2023-04-25T05:04:16.405Z,74.26
2023-04-25T05:06:43.459Z,74.13
2023-04-25T05:09:10.261Z,73.99
2023-04-25T05:11:37.017Z,73.65
2023-04-25T05:14:04.419Z,73.70
2023-04-25T05:16:31.253Z,73.68
2023-04-25T05:19:00.956Z,74.35
2023-04-25T05:21:28.612Z,74.22
2023-04-25T05:23:55.779Z,73.73
2023-04-25T05:26:22.543Z,74.01
2023-04-25T05:28:49.521Z,73.58
2023-04-25T05:31:16.448Z,74.15
2023-04-25T05:33:43.238Z,73.99
2023-04-25T05:36:10.245Z,73.93
2023-04-25T05:38:37.102Z,73.90
2023-04-25T05:41:03.993Z,73.80
2023-04-25T05:43:30.913Z,74.11
2023-04-25T05:45:57.682Z,73.84
2023-04-25T05:48:24.495Z,74.05
2023-04-25T05:50:52.762Z,74.08
2023-04-25T05:53:20.677Z,74.35
2023-04-25T05:55:47.900Z,73.96
2023-04-25T05:58:14.741Z,74.32
2023-04-25T06:00:42.752Z,74.04
2023-04-25T06:03:11.039Z,74.07
2023-04-25T06:05:38.199Z,73.95
2023-04-25T06:08:05.224Z,73.99
2023-04-25T06:10:32.022Z,73.89
2023-04-25T06:12:58.912Z,74.08
2023-04-25T06:15:28.409Z,73.78
2023-04-25T06:17:55.897Z,74.05
2023-04-25T06:20:25.233Z,73.87
2023-04-25T06:22:55.308Z,74.12
2023-04-25T06:25:22.416Z,74.41
2023-04-25T06:27:49.287Z,74.16
2023-04-25T06:30:17.504Z,74.54
2023-04-25T06:32:44.367Z,74.49
2023-04-25T06:35:11.553Z,74.87
2023-04-25T06:37:38.471Z,74.66
2023-04-25T06:40:06.002Z,74.86
2023-04-25T06:42:32.958Z,75.22
2023-04-25T06:44:59.777Z,74.97
2023-04-25T06:47:26.803Z,75.12
2023-04-25T06:49:53.783Z,75.15
2023-04-25T06:52:20.516Z,75.04
2023-04-25T06:54:47.423Z,75.74
2023-04-25T06:57:14.440Z,75.71
2023-04-25T06:59:41.363Z,76.00
2023-04-25T07:02:08.577Z,76.22
2023-04-25T07:04:36.161Z,76.56
2023-04-25T07:07:04.554Z,76.59
2023-04-25T07:09:31.383Z,76.35
2023-04-25T07:11:58.310Z,75.84
2023-04-25T07:14:25.479Z,75.98
2023-04-25T07:16:52.394Z,75.84
2023-04-25T07:19:19.373Z,76.03
2023-04-25T07:21:46.112Z,75.80
2023-04-25T07:24:12.913Z,76.27
2023-04-25T07:26:39.785Z,75.33
2023-04-25T07:29:06.650Z,75.14
2023-04-25T07:31:33.688Z,74.68
2023-04-25T07:34:02.023Z,74.23
2023-04-25T07:36:29.106Z,74.44
2023-04-25T07:38:56.371Z,73.45
2023-04-25T07:41:23.379Z,72.93
2023-04-25T07:43:50.206Z,73.03
2023-04-25T07:46:17.322Z,72.32
2023-04-25T07:48:44.458Z,71.93
2023-04-25T07:51:11.215Z,72.64
2023-04-25T07:53:38.848Z,71.37
2023-04-25T07:56:06.061Z,69.09
2023-04-25T07:58:33.436Z,67.17
2023-04-25T08:01:00.260Z,66.26
2023-04-25T08:03:27.453Z,66.89
2023-04-25T08:05:54.605Z,67.07
2023-04-25T08:08:21.412Z,68.32
2023-04-25T08:10:49.618Z,69.46
2023-04-25T08:13:16.583Z,69.62
2023-04-25T08:15:43.412Z,69.71
2023-04-25T08:18:10.383Z,69.22
2023-04-25T08:20:37.158Z,68.46
2023-04-25T08:23:03.905Z,67.70
2023-04-25T08:25:30.753Z,67.85
2023-04-25T08:27:58.259Z,67.34
2023-04-25T08:30:25.069Z,67.15
2023-04-25T08:32:52.415Z,66.25
2023-04-25T08:35:19.315Z,65.79
2023-04-25T08:37:46.428Z,65.04
2023-04-25T08:40:15.883Z,64.16
2023-04-25T08:42:43.133Z,64.73
2023-04-25T08:45:10.517Z,63.77
2023-04-25T08:47:37.542Z,62.25
2023-04-25T08:50:04.746Z,61.69
2023-04-25T08:52:34.101Z,61.31
2023-04-25T08:55:00.785Z,62.52
2023-04-25T08:57:27.619Z,61.92
2023-04-25T08:59:54.359Z,61.31
2023-04-25T09:02:22.144Z,60.56
2023-04-25T09:04:49.023Z,60.10
2023-04-25T09:07:19.673Z,60.53
2023-04-25T09:09:46.792Z,60.75
2023-04-25T09:12:13.538Z,60.87
2023-04-25T09:14:40.329Z,60.82
2023-04-25T09:17:09.296Z,60.54
2023-04-25T09:19:40.810Z,61.00
2023-04-25T09:22:08.778Z,61.01
2023-04-25T09:24:46.891Z,60.45
2023-04-25T09:27:24.229Z,60.62
2023-04-25T09:29:51.166Z,60.70
2023-04-25T09:32:19.807Z,60.30
2023-04-25T09:34:52.178Z,59.50
2023-04-25T09:37:25.450Z,59.67
2023-04-25T09:39:57.516Z,59.31
2023-04-25T09:42:27.052Z,59.45
2023-04-25T09:44:54.709Z,59.16
2023-04-25T09:47:23.303Z,59.64
2023-04-25T09:49:50.402Z,59.75
2023-04-25T09:52:26.331Z,59.46
2023-04-25T09:54:53.483Z,59.37
2023-04-25T09:57:25.069Z,59.06
2023-04-25T09:59:53.384Z,59.26
2023-04-25T10:02:22.047Z,59.26
2023-04-25T10:04:49.942Z,58.93
2023-04-25T10:07:17.012Z,58.67
2023-04-25T10:09:43.865Z,59.13
2023-04-25T10:12:10.688Z,58.69
2023-04-25T10:14:37.614Z,58.76
2023-04-25T10:17:04.430Z,58.69
2023-04-25T10:19:31.388Z,58.57
2023-04-25T10:22:10.239Z,58.15
2023-04-25T10:24:37.626Z,58.51
2023-04-25T10:27:04.566Z,57.95
2023-04-25T10:29:31.568Z,57.89
2023-04-25T10:32:00.726Z,59.03
2023-04-25T10:34:43.604Z,59.13
2023-04-25T10:37:11.484Z,58.89
2023-04-25T10:39:45.167Z,57.94
2023-04-25T10:42:12.007Z,56.72
2023-04-25T10:44:39.583Z,55.98
2023-04-25T10:47:08.049Z,55.73
2023-04-25T10:49:36.620Z,54.86
2023-04-25T10:52:19.250Z,53.47
2023-04-25T10:54:58.928Z,51.97
2023-04-25T10:57:34.685Z,50.55
2023-04-25T11:00:10.890Z,47.92
2023-04-25T11:02:53.368Z,48.19
2023-04-25T11:05:36.535Z,47.35
2023-04-25T11:08:12.237Z,46.99
2023-04-25T11:10:39.112Z,46.90
2023-04-25T11:13:06.279Z,46.23
2023-04-25T11:15:33.681Z,44.94
2023-04-25T11:18:00.894Z,43.66
2023-04-25T11:20:29.897Z,43.38
2023-04-25T11:22:59.170Z,43.05
2023-04-25T11:25:25.990Z,43.00
2023-04-25T11:27:53.224Z,43.28
2023-04-25T11:30:20.604Z,44.14
2023-04-25T11:32:47.856Z,44.77
2023-04-25T11:35:14.704Z,44.59
2023-04-25T11:37:42.147Z,45.08
2023-04-25T11:40:10.693Z,45.76
2023-04-25T11:42:43.166Z,45.65
2023-04-25T11:45:10.791Z,45.74
2023-04-25T11:47:38.046Z,45.87
2023-04-25T11:50:05.985Z,45.40
2023-04-25T11:52:46.066Z,43.66
2023-04-25T11:55:17.886Z,43.19
2023-04-25T11:57:45.680Z,43.57
2023-04-25T12:00:16.534Z,43.57
2023-04-25T12:02:46.259Z,44.03
2023-04-25T12:05:29.946Z,44.35
2023-04-25T12:08:21.126Z,43.37
2023-04-25T12:10:48.225Z,43.82
2023-04-25T12:13:24.672Z,43.21
2023-04-25T12:15:51.718Z,44.34
2023-04-25T12:18:22.617Z,43.78
2023-04-25T12:20:52.404Z,43.47
2023-04-25T12:23:19.402Z,43.59
2023-04-25T12:25:46.938Z,42.38
2023-04-25T12:28:21.604Z,40.79
2023-04-25T12:31:06.947Z,40.54
2023-04-25T12:33:35.045Z,40.35
2023-04-25T12:36:06.417Z,39.81
2023-04-25T12:38:39.385Z,38.38
2023-04-25T12:41:06.435Z,38.27
2023-04-25T12:43:33.280Z,37.24
2023-04-25T12:46:00.185Z,36.20
2023-04-25T12:48:28.324Z,35.58
2023-04-25T12:50:57.970Z,35.03
2023-04-25T12:53:27.378Z,34.41
2023-04-25T12:58:26.153Z,32.75
2023-04-25T13:00:52.918Z,33.28
2023-04-25T13:03:21.288Z,32.92
2023-04-25T13:05:48.282Z,32.39
2023-04-25T13:08:15.085Z,32.55
2023-04-25T13:10:42.231Z,33.16
2023-04-25T13:13:09.709Z,33.91
2023-04-25T13:15:36.508Z,34.63
2023-04-25T13:18:05.092Z,36.02
2023-04-25T13:20:32.185Z,36.84
2023-04-25T13:23:00.276Z,37.66
2023-04-25T13:25:27.810Z,38.72
2023-04-25T13:27:54.701Z,39.89
2023-04-25T13:30:22.056Z,40.84
2023-04-25T13:32:52.656Z,41.32
2023-04-25T13:35:19.642Z,41.89
2023-04-25T13:37:46.524Z,42.94
2023-04-25T13:40:13.361Z,43.18
2023-04-25T13:42:40.500Z,43.88
2023-04-25T13:45:08.391Z,43.88
2023-04-25T13:47:35.764Z,44.77
2023-04-25T13:50:04.586Z,45.32
2023-04-25T13:52:31.376Z,45.58
2023-04-25T13:54:58.337Z,45.95
2023-04-25T13:57:25.257Z,46.11
2023-04-25T13:59:52.274Z,46.20
2023-04-25T14:02:19.262Z,46.81
2023-04-25T14:04:46.261Z,47.05
2023-04-25T14:07:13.133Z,47.27
2023-04-25T14:09:39.888Z,47.69
2023-04-25T14:12:07.291Z,47.79
2023-04-25T14:14:34.137Z,48.13
2023-04-25T14:17:01.176Z,48.47
2023-04-25T14:19:28.909Z,48.85
2023-04-25T14:21:56.026Z,48.65
2023-04-25T14:24:22.931Z,48.72
2023-04-25T14:26:49.795Z,48.82
2023-04-25T14:29:16.517Z,49.14
2023-04-25T14:31:43.354Z,49.46
2023-04-25T14:34:10.312Z,49.58
2023-04-25T14:36:37.248Z,49.40
2023-04-25T14:39:06.160Z,49.96
2023-04-25T14:41:33.216Z,49.90
2023-04-25T14:44:00.068Z,50.11
2023-04-25T14:46:27.807Z,50.32
2023-04-25T14:48:57.082Z,50.30
2023-04-25T14:51:24.136Z,50.41
2023-04-25T14:53:52.262Z,50.48
2023-04-25T14:56:20.130Z,50.81
2023-04-25T14:58:47.353Z,51.21
2023-04-25T15:01:14.226Z,51.02
2023-04-25T15:03:44.485Z,51.33
2023-04-25T15:06:11.791Z,51.55
2023-04-25T15:08:38.560Z,51.76
2023-04-25T15:11:05.959Z,51.57
2023-04-25T15:13:33.115Z,52.15
2023-04-25T15:15:59.955Z,51.95
2023-04-25T15:18:26.853Z,52.17
2023-04-25T15:20:53.771Z,52.63
2023-04-25T15:23:20.933Z,52.49
2023-04-25T15:25:48.482Z,52.86
2023-04-25T15:28:17.077Z,52.92
2023-04-25T15:30:45.218Z,52.79
2023-04-25T15:33:12.230Z,53.16
2023-04-25T15:35:38.954Z,53.28
2023-04-25T15:38:06.629Z,52.98
2023-04-25T15:40:33.458Z,53.45
2023-04-25T15:43:01.590Z,53.68
2023-04-25T15:45:28.489Z,53.56
2023-04-25T15:47:57.063Z,53.86
2023-04-25T15:50:23.939Z,53.65
2023-04-25T15:52:51.038Z,53.62
2023-04-25T15:55:21.649Z,53.92
2023-04-25T15:57:49.680Z,53.74
2023-04-25T16:00:17.995Z,53.91
2023-04-25T16:02:45.855Z,54.02
2023-04-25T16:05:14.734Z,54.24
2023-04-25T16:07:42.323Z,53.88
2023-04-25T16:10:11.383Z,54.22
2023-04-25T16:12:39.195Z,54.32
2023-04-25T16:15:06.551Z,54.37
2023-04-25T16:17:33.868Z,54.58
2023-04-25T16:20:02.051Z,54.32
2023-04-25T16:22:29.186Z,54.62
2023-04-25T16:24:56.117Z,54.76
2023-04-25T16:27:22.852Z,54.81
2023-04-25T16:29:51.615Z,54.80
2023-04-25T16:32:18.591Z,54.86
2023-04-25T16:34:45.617Z,54.87
2023-04-25T16:37:12.458Z,54.93
2023-04-25T16:39:39.310Z,55.12
2023-04-25T16:42:06.355Z,55.16
2023-04-25T16:44:33.172Z,55.21
2023-04-25T16:46:59.999Z,55.21
2023-04-25T16:49:27.030Z,55.47
2023-04-25T16:51:53.859Z,55.27
2023-04-25T16:54:21.041Z,55.42
2023-04-25T16:56:47.758Z,55.39
2023-04-25T16:59:14.524Z,55.91
2023-04-25T17:01:41.549Z,55.71
2023-04-25T17:04:08.443Z,55.84
2023-04-25T17:06:35.361Z,56.21
2023-04-25T17:09:02.288Z,56.17
2023-04-25T17:11:29.097Z,56.11
2023-04-25T17:13:55.871Z,56.31
2023-04-25T17:16:26.139Z,56.23
2023-04-25T17:18:53.543Z,56.63
2023-04-25T17:21:20.444Z,56.38
2023-04-25T17:23:47.550Z,56.33
2023-04-25T17:26:14.782Z,56.44
2023-04-25T17:28:42.392Z,56.51
2023-04-25T17:31:09.917Z,56.67
2023-04-25T17:33:36.906Z,56.56
2023-04-25T17:36:04.256Z,56.64
2023-04-25T17:38:31.803Z,56.58
2023-04-25T17:40:59.020Z,56.36
2023-04-25T17:43:27.771Z,56.43
2023-04-25T17:45:54.937Z,56.40
2023-04-25T17:48:22.988Z,56.40
2023-04-25T17:50:49.824Z,56.39
2023-04-25T17:53:16.797Z,56.36
2023-04-25T17:55:44.359Z,56.24
2023-04-25T17:58:11.594Z,56.23
2023-04-25T18:00:38.862Z,56.25
2023-04-25T18:03:05.790Z,56.51
2023-04-25T18:05:33.128Z,56.52
2023-04-25T18:08:00.192Z,56.83
2023-04-25T18:10:27.207Z,56.66
2023-04-25T18:12:54.076Z,56.69
2023-04-25T18:15:22.221Z,56.74
2023-04-25T18:17:49.189Z,56.74
2023-04-25T18:20:16.785Z,56.69
2023-04-25T18:22:44.645Z,56.84
2023-04-25T18:25:11.622Z,56.69
2023-04-25T18:27:38.754Z,56.94
2023-04-25T18:30:06.887Z,56.85
2023-04-25T18:32:33.736Z,56.76
2023-04-25T18:35:00.629Z,56.71
2023-04-25T18:37:28.520Z,56.86
2023-04-25T18:39:55.257Z,56.90
2023-04-25T18:42:22.559Z,56.79
2023-04-25T18:44:49.440Z,56.75
2023-04-25T18:47:17.011Z,56.94
2023-04-25T18:49:43.919Z,57.16
2023-04-25T18:52:12.579Z,57.13
2023-04-25T18:54:39.543Z,57.29
2023-04-25T18:57:06.377Z,57.44
2023-04-25T18:59:33.767Z,57.71
2023-04-25T19:02:05.489Z,57.60
2023-04-25T19:04:32.838Z,57.83
2023-04-25T19:07:00.391Z,57.99
2023-04-25T19:09:27.334Z,58.23
2023-04-25T19:11:54.306Z,58.54
2023-04-25T19:14:21.211Z,58.69
2023-04-25T19:16:48.123Z,58.71
2023-04-25T19:19:15.006Z,58.78
2023-04-25T19:21:42.000Z,59.16
2023-04-25T19:24:08.985Z,59.28
2023-04-25T19:26:35.760Z,59.27
2023-04-25T19:29:10.354Z,59.40
2023-04-25T19:31:38.658Z,59.51
2023-04-25T19:34:06.034Z,59.48
2023-04-25T19:36:33.172Z,60.11
2023-04-25T19:39:04.026Z,59.96
2023-04-25T19:41:37.744Z,60.43
2023-04-25T19:44:06.206Z,60.70
2023-04-25T19:46:36.412Z,60.60
2023-04-25T19:49:06.108Z,60.88
2023-04-25T19:51:34.212Z,61.01
2023-04-25T19:54:00.974Z,61.22
2023-04-25T19:56:27.912Z,61.11
2023-04-25T19:58:54.986Z,61.57
2023-04-25T20:01:22.519Z,61.66
2023-04-25T20:03:52.179Z,61.65
2023-04-25T20:06:19.416Z,61.95
2023-04-25T20:08:47.441Z,61.92
2023-04-25T20:11:15.188Z,62.04
2023-04-25T20:13:42.142Z,62.17
2023-04-25T20:16:08.979Z,62.09
2023-04-25T20:18:35.979Z,62.63
2023-04-25T20:21:02.841Z,62.90
2023-04-25T20:23:29.624Z,62.89
2023-04-25T20:25:56.624Z,62.97
2023-04-25T20:28:23.545Z,62.96
2023-04-25T20:30:50.778Z,63.05
2023-04-25T20:33:17.645Z,63.25
2023-04-25T20:35:44.497Z,63.21
2023-04-25T20:38:12.749Z,63.30
2023-04-25T20:40:39.611Z,63.20
2023-04-25T20:43:06.381Z,63.67
2023-04-25T20:45:34.675Z,63.90
2023-04-25T20:48:02.846Z,63.96
2023-04-25T20:50:29.807Z,64.02
2023-04-25T20:52:57.379Z,63.94
2023-04-25T20:55:24.399Z,64.07
2023-04-25T20:57:51.291Z,64.32
2023-04-25T21:00:20.772Z,64.46
2023-04-25T21:02:47.797Z,64.67
2023-04-25T21:05:14.957Z,64.56
2023-04-25T21:07:42.017Z,64.56
2023-04-25T21:10:09.547Z,64.80
2023-04-25T21:12:36.668Z,64.81
2023-04-25T21:15:04.345Z,64.84
2023-04-25T21:17:31.124Z,64.75
2023-04-25T21:19:57.941Z,64.97
2023-04-25T21:22:24.712Z,64.92
2023-04-25T21:24:54.059Z,65.25
2023-04-25T21:27:21.090Z,65.22
2023-04-25T21:29:47.844Z,65.23
2023-04-25T21:32:17.645Z,65.45
2023-04-25T21:34:44.569Z,65.35
2023-04-25T21:37:11.312Z,65.17
2023-04-25T21:39:38.136Z,65.54
2023-04-25T21:42:09.106Z,65.67
2023-04-25T21:44:36.466Z,65.54
2023-04-25T21:47:04.845Z,66.05
2023-04-25T21:49:33.017Z,66.04
2023-04-25T21:52:00.378Z,66.13
2023-04-25T21:54:27.458Z,65.94
2023-04-25T21:56:54.510Z,65.98
2023-04-25T21:59:24.098Z,66.39
2023-04-25T22:01:50.978Z,66.42
2023-04-25T22:04:18.405Z,66.10
2023-04-25T22:06:46.746Z,66.56
2023-04-25T22:09:13.597Z,66.62
2023-04-25T22:11:41.211Z,66.28
2023-04-25T22:14:08.030Z,66.76
2023-04-25T22:16:35.528Z,66.57
2023-04-25T22:19:02.490Z,66.88
2023-04-25T22:21:29.274Z,66.79
2023-04-25T22:23:56.879Z,66.67
2023-04-25T22:26:25.577Z,67.00
2023-04-25T22:28:52.610Z,67.04
2023-04-25T22:31:20.991Z,67.30
2023-04-25T22:33:48.727Z,67.37
2023-04-25T22:36:15.761Z,67.15
2023-04-25T22:38:43.527Z,67.37
2023-04-25T22:41:10.381Z,67.69
2023-04-25T22:43:40.184Z,67.60
2023-04-25T22:46:18.052Z,67.74
2023-04-25T22:48:45.798Z,67.73
2023-04-25T22:51:12.755Z,68.00
2023-04-25T22:53:40.307Z,67.84
2023-04-25T22:56:10.260Z,67.93
2023-04-25T22:58:44.125Z,67.75
2023-04-25T23:01:11.828Z,68.18
2023-04-25T23:03:40.457Z,68.21
2023-04-25T23:06:08.096Z,68.07
2023-04-25T23:08:35.363Z,68.23
2023-04-25T23:11:08.683Z,68.53
2023-04-25T23:13:37.205Z,68.02
2023-04-25T23:16:11.186Z,68.48
2023-04-25T23:18:39.393Z,68.41
2023-04-25T23:21:10.170Z,68.24
2023-04-25T23:23:37.248Z,68.50
2023-04-25T23:26:10.751Z,68.52
2023-04-25T23:28:41.998Z,68.44
2023-04-25T23:31:09.753Z,68.74
2023-04-25T23:33:36.710Z,68.41
2023-04-25T23:36:03.931Z,68.43
2023-04-25T23:38:30.965Z,68.77
2023-04-25T23:40:57.716Z,68.47
2023-04-25T23:43:24.720Z,68.46
2023-04-25T23:45:51.620Z,68.60
2023-04-25T23:48:18.401Z,68.91
2023-04-25T23:50:45.351Z,68.64
2023-04-25T23:53:12.151Z,68.67
2023-04-25T23:55:38.990Z,68.82
2023-04-25T23:58:05.892Z,69.00
